Time;durP1;ratioP1;P1;durP2;ratioP2;P2;SDS_P1;SDS_P2;PMS_P1;PMS_P2;Temp;Humidity;BMP_temperature;BMP_pressure;BME280_temperature;BME280_humidity;BME280_pressure;Samples;Min_cycle;Max_cycle;Signal;HPM_P1;HPM_P2
2022/01/22 00:00:16;;;;;;;26.77;10.10;;;5.30;97.90;;;;;;5055752;28;21348;-46
2022/01/22 00:02:43;;;;;;;22.47;12.60;;;5.30;97.90;;;;;;5052689;28;20958;-46
2022/01/22 00:05:12;;;;;;;23.13;12.83;;;5.30;98.10;;;;;;5032555;28;22719;-46
2022/01/22 00:07:39;;;;;;;35.23;14.50;;;5.30;98.10;;;;;;5086297;28;20479;-47
2022/01/22 00:10:11;;;;;;;21.67;12.50;;;5.30;98.00;;;;;;5061473;28;20478;-47
2022/01/22 00:13:06;;;;;;;28.53;13.13;;;5.30;98.00;;;;;;5058355;28;20479;-48
2022/01/22 00:15:41;;;;;;;24.00;13.00;;;5.20;98.00;;;;;;5058227;28;20475;-47
2022/01/22 00:18:08;;;;;;;36.23;12.60;;;5.20;98.00;;;;;;5078439;28;20554;-46
2022/01/22 00:20:36;;;;;;;19.17;12.83;;;5.30;98.10;;;;;;5063783;28;20484;-47
2022/01/22 00:23:03;;;;;;;31.00;12.80;;;5.20;98.10;;;;;;5068930;28;20483;-46
2022/01/22 00:25:31;;;;;;;27.37;12.40;;;5.20;98.10;;;;;;5057642;28;20491;-47
2022/01/22 00:27:57;;;;;;;24.17;11.23;;;5.20;98.20;;;;;;5062627;28;20840;-47
2022/01/22 00:30:26;;;;;;;22.73;12.27;;;5.20;98.20;;;;;;5045660;28;20541;-46
2022/01/22 00:32:54;;;;;;;31.33;12.30;;;5.20;98.20;;;;;;5081946;28;20537;-47
2022/01/22 00:35:23;;;;;;;23.27;12.13;;;5.20;98.20;;;;;;5068745;28;20486;-47
2022/01/22 00:37:50;;;;;;;26.90;13.80;;;5.20;98.30;;;;;;5061129;28;21011;-46
2022/01/22 00:40:19;;;;;;;26.00;12.13;;;5.20;98.40;;;;;;5077586;28;20486;-47
2022/01/22 00:42:48;;;;;;;21.50;13.00;;;5.10;98.40;;;;;;5054243;28;20521;-47
2022/01/22 00:45:16;;;;;;;22.77;13.90;;;5.20;98.40;;;;;;5049666;28;20491;-47
2022/01/22 00:47:43;;;;;;;22.80;12.57;;;5.20;98.40;;;;;;5050512;28;20551;-47
2022/01/22 00:50:14;;;;;;;24.90;12.07;;;5.20;98.40;;;;;;5068271;28;20629;-47
2022/01/22 00:52:41;;;;;;;19.33;12.67;;;5.20;98.30;;;;;;5065935;28;21006;-47
2022/01/22 00:55:08;;;;;;;25.67;14.23;;;5.20;98.30;;;;;;5056128;28;21014;-46
2022/01/22 00:57:35;;;;;;;27.87;14.63;;;5.20;98.30;;;;;;5037762;28;20485;-47
2022/01/22 01:00:03;;;;;;;36.63;18.77;;;5.20;98.40;;;;;;5058999;27;20548;-47
2022/01/22 01:02:30;;;;;;;74.73;22.67;;;5.20;98.40;;;;;;5065996;27;20483;-47
2022/01/22 01:04:57;;;;;;;107.20;25.97;;;;;;;;;;5062091;28;20897;-46
2022/01/22 01:07:26;;;;;;;303.00;34.90;;;;;;;;;;5066781;28;20512;-47
2022/01/22 01:09:53;;;;;;;166.10;30.37;;;;;;;;;;5067018;28;20484;-47
2022/01/22 01:12:19;;;;;;;49.50;19.93;;;5.10;98.50;;;;;;5066783;28;20480;-47
2022/01/22 01:14:53;;;;;;;37.53;16.00;;;;;;;;;;5072812;27;20482;-48
2022/01/22 01:17:46;;;;;;;22.90;15.07;;;5.10;98.50;;;;;;5070100;27;20983;-48
2022/01/22 01:34:01;;;;;;;151.53;27.27;;;5.10;98.30;;;;;;5046459;28;20641;-45
2022/01/22 01:36:28;;;;;;;26.97;14.70;;;5.10;98.20;;;;;;5057930;28;20852;-45
2022/01/22 01:38:59;;;;;;;25.67;14.50;;;5.10;98.40;;;;;;5061073;28;20473;-46
2022/01/22 01:41:33;;;;;;;79.40;17.87;;;;;;;;;;5070267;27;20545;-46
2022/01/22 01:44:00;;;;;;;484.70;51.33;;;;;;;;;;5076716;27;20554;-46
2022/01/22 01:46:30;;;;;;;43.47;18.67;;;5.20;98.40;;;;;;5068448;27;20564;-46
2022/01/22 01:48:58;;;;;;;299.43;36.90;;;;;;;;;;5056313;27;20491;-45
2022/01/22 01:51:28;;;;;;;136.33;21.20;;;;;;;;;;5073187;27;20490;-45
2022/01/22 01:54:02;;;;;;;33.87;15.87;;;5.20;98.30;;;;;;5074418;27;20570;-45
2022/01/22 01:59:15;;;;;;;30.20;15.67;;;5.20;98.30;;;;;;5069569;27;20483;-45
2022/01/22 02:01:42;;;;;;;23.87;14.60;;;5.20;98.30;;;;;;5075475;27;20482;-45
2022/01/22 02:04:11;;;;;;;36.03;16.83;;;5.20;98.20;;;;;;5053506;27;20487;-45
2022/01/22 02:06:38;;;;;;;25.20;14.70;;;5.20;98.10;;;;;;5067880;27;20481;-45
2022/01/22 02:09:09;;;;;;;24.53;16.53;;;5.30;98.10;;;;;;5051211;28;20483;-45
2022/01/22 02:11:36;;;;;;;30.83;14.60;;;5.30;98.00;;;;;;5059731;28;20559;-45
2022/01/22 02:14:10;;;;;;;25.80;14.60;;;5.30;98.00;;;;;;5055537;28;20485;-45
2022/01/22 02:25:11;;;;;;;33.53;15.93;;;5.40;97.90;;;;;;5012850;28;20485;-45
2022/01/22 02:27:38;;;;;;;25.57;14.50;;;5.50;98.00;;;;;;5015700;28;21062;-45
2022/01/22 02:30:05;;;;;;;25.80;14.70;;;5.50;98.00;;;;;;5032164;28;20481;-45
2022/01/22 02:35:19;;;;;;;18.00;13.73;;;5.50;97.90;;;;;;5059138;28;20607;-45
2022/01/22 02:37:53;;;;;;;26.60;16.50;;;5.60;97.80;;;;;;5055672;28;20476;-45
2022/01/22 02:40:25;;;;;;;30.00;15.20;;;5.50;97.70;;;;;;5040912;28;20501;-46
2022/01/22 02:42:51;;;;;;;29.33;15.80;;;5.50;97.80;;;;;;5077116;28;20492;-46
2022/01/22 02:45:21;;;;;;;23.10;14.47;;;5.60;97.70;;;;;;5054597;28;21021;-45
2022/01/22 02:47:49;;;;;;;26.07;14.40;;;5.60;97.60;;;;;;5045005;28;20480;-45
2022/01/22 02:50:16;;;;;;;21.87;12.60;;;5.60;97.40;;;;;;5053831;28;20483;-45
2022/01/22 02:52:43;;;;;;;21.60;12.50;;;5.50;97.30;;;;;;5074305;28;20521;-45
2022/01/22 02:55:13;;;;;;;24.30;13.70;;;5.50;97.40;;;;;;5057145;28;20482;-45
2022/01/22 02:57:41;;;;;;;21.60;13.13;;;5.40;97.40;;;;;;5056867;28;20496;-45
2022/01/22 03:00:11;;;;;;;33.57;14.73;;;5.40;97.40;;;;;;5055531;28;20491;-45
2022/01/22 03:02:39;;;;;;;23.93;14.53;;;5.50;97.60;;;;;;5057429;28;20528;-46
2022/01/22 03:05:07;;;;;;;40.43;13.77;;;5.50;97.40;;;;;;5056243;28;20488;-45
2022/01/22 03:07:35;;;;;;;25.20;13.03;;;5.60;97.40;;;;;;5055642;28;20895;-45
2022/01/22 03:10:03;;;;;;;30.73;13.53;;;5.60;97.40;;;;;;5049040;28;20848;-45
2022/01/22 03:12:50;;;;;;;27.10;13.13;;;5.60;97.30;;;;;;5082144;28;21026;-45
2022/01/22 03:18:09;;;;;;;28.00;14.03;;;5.60;97.30;;;;;;5053759;28;20475;-45
2022/01/22 03:20:48;;;;;;;28.03;12.93;;;5.60;97.40;;;;;;5041653;28;20523;-49
2022/01/22 03:28:54;;;;;;;16.17;10.80;;;5.30;97.70;;;;;;5045025;28;20578;-46
2022/01/22 03:31:21;;;;;;;31.70;13.60;;;5.20;97.70;;;;;;5051817;28;20476;-45
2022/01/22 03:33:48;;;;;;;23.50;13.47;;;5.20;97.90;;;;;;5053162;28;20524;-46
2022/01/22 03:36:15;;;;;;;27.50;14.23;;;5.20;97.90;;;;;;5050638;28;20494;-46
2022/01/22 03:38:42;;;;;;;31.00;15.47;;;5.10;97.80;;;;;;5054040;28;20497;-46
2022/01/22 03:41:10;;;;;;;28.97;13.60;;;5.20;97.90;;;;;;5042435;28;20698;-45
2022/01/22 03:43:38;;;;;;;29.00;13.77;;;5.20;97.90;;;;;;5071712;28;20494;-46
2022/01/22 03:46:06;;;;;;;34.57;15.23;;;5.20;98.00;;;;;;5061214;28;20524;-45
2022/01/22 03:48:33;;;;;;;27.47;14.43;;;5.30;97.80;;;;;;5053257;28;20484;-45
2022/01/22 03:51:00;;;;;;;20.90;12.80;;;5.30;97.70;;;;;;5078721;28;20499;-45
2022/01/22 03:53:27;;;;;;;30.03;13.47;;;5.30;97.60;;;;;;5047343;28;20481;-46
2022/01/22 03:56:02;;;;;;;21.43;12.37;;;5.30;97.70;;;;;;5076518;28;20488;-46
2022/01/22 03:58:29;;;;;;;25.67;14.20;;;;;;;;;;5062137;28;20479;-45
2022/01/22 04:01:15;;;;;;;33.37;13.13;;;5.30;97.70;;;;;;5045573;28;20541;-46
2022/01/22 04:03:46;;;;;;;27.03;13.00;;;;;;;;;;5047488;28;20482;-45
2022/01/22 04:06:41;;;;;;;29.10;12.90;;;5.30;97.40;;;;;;5048759;28;20575;-45
2022/01/22 04:09:12;;;;;;;47.43;13.90;;;5.10;97.60;;;;;;5046857;28;20495;-45
2022/01/22 04:11:42;;;;;;;34.47;14.40;;;5.20;97.80;;;;;;5057036;28;20528;-45
2022/01/22 04:14:16;;;;;;;31.03;14.23;;;5.30;97.70;;;;;;5050014;28;20480;-45
2022/01/22 04:16:55;;;;;;;21.23;14.10;;;5.30;97.60;;;;;;5044150;28;20493;-45
2022/01/22 04:24:55;;;;;;;24.17;12.30;;;5.40;97.40;;;;;;5055600;28;20474;-46
2022/01/22 04:27:24;;;;;;;27.23;12.40;;;5.40;97.40;;;;;;5055742;28;20897;-46
2022/01/22 04:29:51;;;;;;;30.57;12.77;;;5.40;97.30;;;;;;5068119;28;20483;-46
2022/01/22 04:32:18;;;;;;;24.47;11.00;;;5.40;97.30;;;;;;5070373;28;20484;-46
2022/01/22 04:34:47;;;;;;;22.43;11.80;;;5.30;97.20;;;;;;5056172;28;20550;-46
2022/01/22 04:37:14;;;;;;;22.80;12.57;;;5.30;97.40;;;;;;5056495;28;20472;-46
2022/01/22 04:39:41;;;;;;;35.90;11.00;;;5.30;97.30;;;;;;5058224;28;20492;-46
2022/01/22 04:42:08;;;;;;;23.23;11.30;;;5.30;97.40;;;;;;5059648;28;20480;-45
2022/01/22 04:44:42;;;;;;;16.23;10.37;;;5.30;97.30;;;;;;5058627;28;20484;-45
2022/01/22 04:47:26;;;;;;;16.23;11.40;;;5.40;97.40;;;;;;5050086;28;20486;-45
2022/01/22 04:52:40;;;;;;;19.40;11.40;;;5.30;97.20;;;;;;5046710;28;20899;-46
2022/01/22 04:55:08;;;;;;;17.90;10.57;;;5.30;97.20;;;;;;5053915;28;20480;-45
2022/01/22 04:57:36;;;;;;;22.70;10.80;;;5.30;97.30;;;;;;5062134;28;20466;-46
2022/01/22 05:00:06;;;;;;;23.13;10.63;;;5.30;97.40;;;;;;5074937;28;20485;-46
2022/01/22 05:02:33;;;;;;;24.93;12.33;;;5.30;97.30;;;;;;5060707;28;20522;-46
2022/01/22 05:05:01;;;;;;;20.27;10.77;;;5.20;97.30;;;;;;5055590;28;20491;-46
2022/01/22 05:07:27;;;;;;;23.10;10.60;;;5.20;97.10;;;;;;5058798;28;20513;-46
2022/01/22 05:09:54;;;;;;;12.60;8.37;;;5.10;97.30;;;;;;5073105;28;20490;-47
2022/01/22 05:12:21;;;;;;;18.30;10.20;;;5.00;97.30;;;;;;5067347;28;20483;-46
2022/01/22 05:14:48;;;;;;;23.00;9.80;;;5.00;97.50;;;;;;5079649;28;20583;-46
2022/01/22 05:17:17;;;;;;;23.40;11.30;;;4.90;97.60;;;;;;5062172;28;20534;-46
2022/01/22 05:19:50;;;;;;;13.77;8.53;;;5.00;97.70;;;;;;5056946;28;20485;-45
2022/01/22 05:22:33;;;;;;;22.23;9.70;;;5.00;97.60;;;;;;5055601;28;20488;-46
2022/01/22 05:25:05;;;;;;;20.60;8.20;;;4.90;97.70;;;;;;5048881;28;21309;-46
2022/01/22 05:27:48;;;;;;;26.17;9.27;;;4.90;97.60;;;;;;5086492;28;20492;-46
2022/01/22 05:30:37;;;;;;;13.67;9.43;;;5.00;97.60;;;;;;5052226;28;21203;-46
2022/01/22 05:33:16;;;;;;;28.17;9.20;;;5.10;97.60;;;;;;5065420;28;20484;-46
2022/01/22 05:38:40;;;;;;;16.17;8.00;;;5.10;97.30;;;;;;5057534;28;20532;-46
2022/01/22 05:41:06;;;;;;;21.07;8.07;;;5.20;97.30;;;;;;5057577;28;20565;-46
2022/01/22 05:43:33;;;;;;;9.40;7.07;;;5.10;97.00;;;;;;5057305;28;20477;-46
2022/01/22 05:46:00;;;;;;;14.30;8.50;;;5.10;97.10;;;;;;5059676;28;20481;-46
2022/01/22 05:48:26;;;;;;;16.90;7.47;;;5.10;97.10;;;;;;5071400;28;20483;-46
2022/01/22 05:50:57;;;;;;;16.30;6.93;;;5.10;97.20;;;;;;5067184;28;20481;-46
2022/01/22 05:53:38;;;;;;;21.17;8.17;;;5.10;97.10;;;;;;5052820;28;20481;-46
2022/01/22 06:01:35;;;;;;;18.60;8.00;;;5.20;97.10;;;;;;5041407;28;20472;-45
2022/01/22 06:04:01;;;;;;;15.50;6.30;;;5.20;97.10;;;;;;5064305;28;20485;-46
2022/01/22 06:06:28;;;;;;;9.47;6.70;;;5.20;97.10;;;;;;5055313;28;20528;-46
2022/01/22 06:08:57;;;;;;;18.13;8.37;;;5.20;97.10;;;;;;5059142;28;20542;-45
2022/01/22 06:11:28;;;;;;;12.07;7.20;;;5.10;97.10;;;;;;5059818;28;20889;-46
2022/01/22 06:13:55;;;;;;;14.00;7.73;;;5.10;97.20;;;;;;5048247;28;21097;-46
2022/01/22 06:16:23;;;;;;;18.63;7.57;;;5.10;97.20;;;;;;5051453;28;20479;-46
2022/01/22 06:18:50;;;;;;;17.07;7.73;;;5.10;97.10;;;;;;5061610;28;20573;-55
2022/01/22 06:21:17;;;;;;;15.97;9.53;;;5.10;97.30;;;;;;5066669;28;20490;-46
2022/01/22 06:23:45;;;;;;;17.13;7.93;;;5.10;97.40;;;;;;5072971;28;20501;-46
2022/01/22 06:26:13;;;;;;;14.03;8.70;;;5.10;97.30;;;;;;5055980;28;21049;-46
2022/01/22 06:28:41;;;;;;;12.23;7.90;;;5.00;97.40;;;;;;5055094;28;20824;-45
2022/01/22 06:31:09;;;;;;;17.40;8.77;;;5.00;97.40;;;;;;5055753;28;20549;-45
2022/01/22 06:33:35;;;;;;;15.83;7.87;;;5.00;97.30;;;;;;5052859;28;20627;-45
2022/01/22 06:36:02;;;;;;;28.10;11.00;;;5.00;97.40;;;;;;5055876;28;20488;-45
2022/01/22 06:38:29;;;;;;;18.60;9.80;;;5.10;97.50;;;;;;5047320;28;20495;-48
2022/01/22 06:43:41;;;;;;;28.90;12.63;;;5.00;97.40;;;;;;5047980;28;20480;-45
2022/01/22 06:46:08;;;;;;;21.00;12.10;;;5.00;97.40;;;;;;5083647;28;20473;-45
2022/01/22 06:48:35;;;;;;;24.23;12.10;;;;;;;;;;5048268;28;20476;-46
2022/01/22 06:51:03;;;;;;;25.33;14.13;;;4.90;97.60;;;;;;5089252;28;21035;-47
2022/01/22 06:53:32;;;;;;;20.80;10.50;;;4.90;97.70;;;;;;5049825;28;20502;-45
2022/01/22 06:56:01;;;;;;;26.27;9.93;;;4.80;97.70;;;;;;5034314;28;20482;-46
2022/01/22 06:58:28;;;;;;;18.40;10.50;;;4.80;97.70;;;;;;5051064;28;21285;-46
2022/01/22 07:00:56;;;;;;;16.50;10.30;;;4.80;97.70;;;;;;5063551;28;20535;-46
2022/01/22 07:03:24;;;;;;;40.73;10.37;;;;;;;;;;5052587;28;20488;-46
2022/01/22 07:05:50;;;;;;;41.17;14.63;;;4.80;97.80;;;;;;5050519;28;21042;-45
2022/01/22 07:08:17;;;;;;;230.93;26.37;;;;;;;;;;5050442;28;20619;-46
2022/01/22 07:10:44;;;;;;;68.40;16.20;;;4.80;97.90;;;;;;5049748;28;20541;-46
2022/01/22 07:13:11;;;;;;;88.40;22.10;;;4.90;98.00;;;;;;5051998;28;20983;-46
2022/01/22 07:15:38;;;;;;;41.00;14.37;;;4.90;97.90;;;;;;5042187;28;20985;-46
2022/01/22 07:18:06;;;;;;;60.83;18.33;;;4.90;97.80;;;;;;5047779;28;20489;-46
2022/01/22 07:20:34;;;;;;;19.67;10.60;;;4.90;97.70;;;;;;5056355;28;20486;-46
2022/01/22 07:23:04;;;;;;;45.27;18.70;;;4.90;97.70;;;;;;5043779;28;20559;-46
2022/01/22 07:25:31;;;;;;;30.53;11.77;;;4.90;97.80;;;;;;5052198;28;20484;-46
2022/01/22 07:27:58;;;;;;;33.13;13.37;;;4.90;97.80;;;;;;5073309;28;21148;-47
2022/01/22 07:30:25;;;;;;;22.27;10.27;;;4.90;98.00;;;;;;5051834;28;20499;-46
2022/01/22 07:32:52;;;;;;;19.90;10.70;;;5.00;98.00;;;;;;5055265;28;20491;-47
2022/01/22 07:35:20;;;;;;;16.87;9.97;;;5.00;97.70;;;;;;5067294;28;20480;-46
2022/01/22 07:37:47;;;;;;;17.77;9.70;;;5.10;97.70;;;;;;5018571;28;20493;-46
2022/01/22 07:40:14;;;;;;;24.43;9.10;;;5.10;97.70;;;;;;5028662;28;21019;-46
2022/01/22 07:42:41;;;;;;;16.40;8.10;;;5.10;97.60;;;;;;5033555;28;21188;-46
2022/01/22 07:45:09;;;;;;;18.17;8.37;;;5.10;97.50;;;;;;5037344;28;20482;-46
2022/01/22 07:47:36;;;;;;;32.20;9.67;;;5.10;97.70;;;;;;5057672;28;20493;-45
2022/01/22 07:50:04;;;;;;;17.63;10.03;;;5.10;97.80;;;;;;5041836;28;20489;-46
2022/01/22 07:52:33;;;;;;;15.00;8.73;;;5.10;97.70;;;;;;5034949;28;20535;-46
2022/01/22 07:54:59;;;;;;;35.10;10.67;;;5.10;97.60;;;;;;5025154;28;20484;-46
2022/01/22 07:57:26;;;;;;;25.33;9.63;;;5.10;97.80;;;;;;5021632;28;20587;-46
2022/01/22 07:59:53;;;;;;;18.27;8.93;;;5.10;97.60;;;;;;5046224;28;20469;-49
2022/01/22 08:02:20;;;;;;;28.17;10.30;;;5.10;97.60;;;;;;5010516;28;20915;-46
2022/01/22 08:04:46;;;;;;;27.23;9.70;;;5.10;97.90;;;;;;5056591;28;20485;-44
2022/01/22 08:07:13;;;;;;;191.67;25.43;;;;;;;;;;5024392;28;20497;-46
2022/01/22 08:09:42;;;;;;;66.23;16.70;;;5.10;97.90;;;;;;5051814;28;20883;-46
2022/01/22 08:12:10;;;;;;;219.93;27.43;;;;;;;;;;5048522;28;20473;-46
2022/01/22 08:14:37;;;;;;;70.03;18.50;;;;;;;;;;5027164;28;22640;-46
2022/01/22 08:17:04;;;;;;;368.83;39.10;;;;;;;;;;5028319;28;20490;-46
2022/01/22 08:19:31;;;;;;;38.47;15.77;;;5.20;97.90;;;;;;5027268;28;20481;-45
2022/01/22 08:21:57;;;;;;;51.77;18.47;;;5.20;97.90;;;;;;5026250;28;20498;-46
2022/01/22 08:24:26;;;;;;;33.73;12.77;;;5.20;97.90;;;;;;5031908;28;20485;-46
2022/01/22 08:27:09;;;;;;;19.07;11.37;;;5.20;97.80;;;;;;5041996;28;21108;-52
2022/01/22 08:29:35;;;;;;;26.03;11.67;;;5.20;97.80;;;;;;5022808;28;20607;-45
2022/01/22 08:32:11;;;;;;;22.60;13.90;;;5.30;98.00;;;;;;5023539;28;20906;-46
2022/01/22 08:37:22;;;;;;;16.77;9.70;;;5.30;97.80;;;;;;5033480;28;20507;-46
2022/01/22 08:39:49;;;;;;;24.43;13.10;;;5.30;97.70;;;;;;5030915;28;20488;-46
2022/01/22 08:42:17;;;;;;;24.70;10.97;;;5.30;97.80;;;;;;5030203;28;20496;-46
2022/01/22 08:44:44;;;;;;;21.63;10.67;;;5.30;97.90;;;;;;5046942;28;20494;-46
2022/01/22 08:47:11;;;;;;;19.70;10.63;;;5.30;98.10;;;;;;5034145;28;20485;-46
2022/01/22 08:49:37;;;;;;;28.13;10.80;;;5.40;98.00;;;;;;5028233;28;20476;-46
2022/01/22 08:52:09;;;;;;;27.43;10.03;;;5.40;97.90;;;;;;5041799;28;20484;-46
2022/01/22 08:54:36;;;;;;;27.53;11.40;;;5.40;98.00;;;;;;5030887;28;20836;-48
2022/01/22 08:57:04;;;;;;;20.80;10.43;;;5.40;97.90;;;;;;5034822;28;20520;-46
2022/01/22 08:59:32;;;;;;;28.27;10.83;;;5.50;98.10;;;;;;5046268;28;20476;-46
2022/01/22 09:02:00;;;;;;;27.40;10.93;;;5.50;98.00;;;;;;5044530;28;20951;-45
2022/01/22 09:04:26;;;;;;;24.33;10.40;;;5.40;97.70;;;;;;5048432;28;20484;-46
2022/01/22 09:06:53;;;;;;;14.37;8.73;;;5.50;98.00;;;;;;5032490;28;20482;-46
2022/01/22 09:09:20;;;;;;;31.03;10.90;;;5.50;97.80;;;;;;5034517;28;20484;-46
2022/01/22 09:11:47;;;;;;;19.03;10.17;;;5.50;97.90;;;;;;5035852;28;20550;-46
2022/01/22 09:14:16;;;;;;;22.57;11.43;;;5.60;98.00;;;;;;5044850;28;20932;-47
2022/01/22 09:16:45;;;;;;;30.30;12.17;;;5.60;98.00;;;;;;5046821;28;20490;-45
2022/01/22 09:19:14;;;;;;;19.80;9.47;;;5.60;97.80;;;;;;5034243;28;20489;-49
2022/01/22 09:21:42;;;;;;;25.20;10.10;;;5.60;97.70;;;;;;5035162;28;20492;-46
2022/01/22 09:24:09;;;;;;;29.40;10.20;;;5.60;97.90;;;;;;5039517;28;20484;-45
2022/01/22 09:26:37;;;;;;;18.60;10.67;;;5.60;97.90;;;;;;5036554;28;20524;-46
2022/01/22 09:29:05;;;;;;;18.50;10.30;;;5.60;98.10;;;;;;5036421;28;21054;-46
2022/01/22 09:31:33;;;;;;;29.23;10.50;;;5.60;98.00;;;;;;5030184;28;21138;-46
2022/01/22 09:34:01;;;;;;;14.17;9.70;;;5.60;97.90;;;;;;5036985;28;20490;-46
2022/01/22 09:36:31;;;;;;;31.10;11.00;;;5.60;97.80;;;;;;5033860;28;20512;-46
2022/01/22 09:38:58;;;;;;;27.83;11.47;;;5.60;97.90;;;;;;5029492;28;20481;-46
2022/01/22 09:41:27;;;;;;;21.63;11.93;;;5.60;98.00;;;;;;5043530;28;21170;-46
2022/01/22 09:43:54;;;;;;;33.93;13.40;;;5.50;98.20;;;;;;5054521;28;20470;-50
2022/01/22 09:46:22;;;;;;;26.43;12.40;;;5.60;97.90;;;;;;5051921;28;20486;-45
2022/01/22 09:48:51;;;;;;;31.70;14.67;;;5.60;98.00;;;;;;5055592;28;20491;-46
2022/01/22 09:51:19;;;;;;;36.13;16.80;;;5.70;98.10;;;;;;5056346;28;20491;-46
2022/01/22 09:53:47;;;;;;;52.30;18.33;;;5.80;98.00;;;;;;5061148;28;21445;-46
2022/01/22 09:56:18;;;;;;;26.50;13.23;;;5.90;97.90;;;;;;5051360;28;20482;-46
2022/01/22 09:58:45;;;;;;;44.17;15.30;;;;;;;;;;5051056;28;20481;-45
2022/01/22 10:01:23;;;;;;;326.93;50.53;;;6.00;97.60;;;;;;5024837;28;20541;-47
2022/01/22 10:03:50;;;;;;;162.17;29.30;;;;;;;;;;5057777;28;20510;-45
2022/01/22 10:06:21;;;;;;;39.03;16.70;;;6.00;97.90;;;;;;5055330;28;20489;-46
2022/01/22 10:08:51;;;;;;;36.83;16.53;;;6.10;98.10;;;;;;5071696;28;20477;-46
2022/01/22 10:11:20;;;;;;;110.80;22.40;;;6.10;98.00;;;;;;5041766;28;20476;-46
2022/01/22 10:13:48;;;;;;;40.83;16.07;;;6.10;97.70;;;;;;5058288;28;20500;-46
2022/01/22 10:16:18;;;;;;;53.83;20.70;;;6.20;97.80;;;;;;5047535;28;21120;-46
2022/01/22 10:18:45;;;;;;;24.80;13.80;;;6.30;97.80;;;;;;5046760;28;20481;-46
2022/01/22 10:21:15;;;;;;;43.30;19.10;;;6.20;97.60;;;;;;5054440;28;20516;-46
2022/01/22 10:23:43;;;;;;;37.30;17.10;;;6.20;97.60;;;;;;5049964;28;20493;-46
2022/01/22 10:26:14;;;;;;;196.77;29.40;;;6.30;97.90;;;;;;5048469;28;20488;-46
2022/01/22 10:28:46;;;;;;;37.50;15.87;;;6.30;97.90;;;;;;5049865;28;20492;-46
2022/01/22 10:31:21;;;;;;;32.73;16.37;;;6.20;97.40;;;;;;5052808;28;20600;-46
2022/01/22 10:34:09;;;;;;;34.03;17.03;;;6.20;97.90;;;;;;5051248;28;20507;-46
2022/01/22 10:36:36;;;;;;;44.93;14.80;;;6.20;98.10;;;;;;5039129;28;20510;-46
2022/01/22 10:39:08;;;;;;;40.50;17.67;;;6.30;98.00;;;;;;5032270;28;20539;-46
2022/01/22 10:41:37;;;;;;;34.20;12.90;;;6.30;97.70;;;;;;5032722;28;20628;-46
2022/01/22 10:44:07;;;;;;;25.93;12.60;;;6.30;97.80;;;;;;5024867;28;20967;-46
2022/01/22 10:46:49;;;;;;;18.70;12.00;;;6.30;97.80;;;;;;5028980;28;20537;-46
2022/01/22 10:49:19;;;;;;;26.40;13.63;;;6.40;97.80;;;;;;5025953;28;20854;-45
2022/01/22 10:51:52;;;;;;;28.27;12.87;;;6.40;97.50;;;;;;5033228;28;20488;-46
2022/01/22 10:54:22;;;;;;;22.97;10.37;;;6.50;97.60;;;;;;5037130;28;20573;-45
2022/01/22 10:56:49;;;;;;;21.30;12.30;;;6.50;97.40;;;;;;5058814;28;20495;-45
2022/01/22 10:59:17;;;;;;;23.80;13.60;;;6.50;97.40;;;;;;5032164;28;20485;-46
2022/01/22 11:01:54;;;;;;;31.43;12.97;;;6.70;97.90;;;;;;5031704;28;20522;-46
2022/01/22 11:04:23;;;;;;;18.13;10.70;;;6.80;97.90;;;;;;5033833;28;20482;-46
2022/01/22 11:06:53;;;;;;;13.67;9.07;;;6.80;97.00;;;;;;5029172;28;20474;-45
2022/01/22 11:09:22;;;;;;;17.40;9.53;;;6.80;97.10;;;;;;5033583;28;20519;-45
2022/01/22 11:11:50;;;;;;;26.13;11.37;;;6.80;97.10;;;;;;5029357;28;20489;-45
2022/01/22 11:14:17;;;;;;;17.80;12.30;;;6.70;97.20;;;;;;5027004;28;20526;-46
2022/01/22 11:16:46;;;;;;;22.80;12.43;;;6.70;97.20;;;;;;5044993;28;20485;-46
2022/01/22 11:19:15;;;;;;;29.43;10.93;;;6.70;97.20;;;;;;5054182;28;20477;-46
2022/01/22 11:21:44;;;;;;;32.47;11.70;;;6.60;97.10;;;;;;5051458;28;20489;-46
2022/01/22 11:24:12;;;;;;;25.83;12.10;;;6.70;97.20;;;;;;5034481;28;20480;-46
2022/01/22 11:26:43;;;;;;;31.83;12.90;;;6.70;97.30;;;;;;5053335;28;21375;-46
2022/01/22 11:29:13;;;;;;;26.07;12.37;;;6.70;97.20;;;;;;5047695;28;20492;-46
2022/01/22 11:31:42;;;;;;;21.80;12.00;;;6.70;97.30;;;;;;5058226;28;20485;-46
2022/01/22 11:34:09;;;;;;;19.63;11.27;;;6.70;97.40;;;;;;5052667;28;20968;-46
2022/01/22 11:36:43;;;;;;;20.60;12.10;;;6.80;97.30;;;;;;5055633;28;20994;-46
2022/01/22 11:39:19;;;;;;;17.60;10.07;;;6.80;97.10;;;;;;5052943;28;21057;-46
2022/01/22 11:41:53;;;;;;;20.50;9.10;;;6.80;97.10;;;;;;5060446;28;20482;-47
2022/01/22 11:44:26;;;;;;;18.03;11.50;;;6.80;96.90;;;;;;5036907;28;20531;-46
2022/01/22 11:47:08;;;;;;;23.50;11.80;;;6.80;96.80;;;;;;5051133;28;20484;-47
2022/01/22 11:49:35;;;;;;;15.63;8.57;;;6.80;97.10;;;;;;5064703;28;20531;-46
2022/01/22 11:52:24;;;;;;;15.73;8.80;;;6.80;97.10;;;;;;5056136;28;20490;-46
2022/01/22 11:54:53;;;;;;;14.10;8.63;;;6.80;96.90;;;;;;5044133;28;21485;-46
2022/01/22 11:57:22;;;;;;;16.90;10.77;;;6.90;96.90;;;;;;5052323;27;20485;-46
2022/01/22 12:00:09;;;;;;;14.63;9.57;;;6.90;97.00;;;;;;5059623;27;20480;-46
2022/01/22 12:02:37;;;;;;;18.53;9.87;;;6.90;97.10;;;;;;5040589;28;20576;-46
2022/01/22 12:05:05;;;;;;;15.60;9.23;;;7.00;97.10;;;;;;5048126;28;20470;-46
2022/01/22 12:07:35;;;;;;;19.13;10.67;;;7.00;97.00;;;;;;5041004;28;20482;-47
2022/01/22 12:16:10;;;;;;;19.13;11.17;;;7.20;96.70;;;;;;5040263;28;20538;-46
2022/01/22 12:18:43;;;;;;;16.80;10.50;;;7.30;96.80;;;;;;5039285;28;20487;-46
2022/01/22 12:21:31;;;;;;;12.53;9.80;;;;;;;;;;5052764;28;20472;-46
2022/01/22 12:23:58;;;;;;;17.30;10.40;;;7.30;96.70;;;;;;5039910;28;20504;-46
2022/01/22 12:26:43;;;;;;;16.70;9.60;;;7.30;96.30;;;;;;5039190;28;20482;-46
2022/01/22 12:29:38;;;;;;;10.80;8.03;;;7.20;96.20;;;;;;5043156;28;20472;-47
2022/01/22 12:32:15;;;;;;;26.20;10.10;;;7.20;96.70;;;;;;5017712;28;20467;-46
2022/01/22 12:35:10;;;;;;;17.87;8.83;;;7.20;96.60;;;;;;5057987;28;20573;-46
2022/01/22 12:37:44;;;;;;;15.33;10.30;;;7.30;96.50;;;;;;5038008;28;20476;-46
2022/01/22 12:40:12;;;;;;;18.83;9.23;;;7.30;96.80;;;;;;5023143;28;21583;-46
2022/01/22 12:43:03;;;;;;;20.07;9.90;;;7.30;96.60;;;;;;5035821;28;20688;-46
2022/01/22 12:45:30;;;;;;;15.57;10.30;;;7.30;96.50;;;;;;5052430;28;20494;-46
2022/01/22 12:47:57;;;;;;;22.80;11.07;;;7.30;96.50;;;;;;5049763;28;20498;-46
2022/01/22 12:50:29;;;;;;;13.63;9.40;;;7.30;96.50;;;;;;5015145;28;20983;-46
2022/01/22 12:53:02;;;;;;;12.93;9.17;;;7.30;96.70;;;;;;5059453;28;20475;-46
2022/01/22 12:55:49;;;;;;;14.37;10.00;;;7.30;96.80;;;;;;5040525;28;20477;-46
2022/01/22 12:58:21;;;;;;;13.00;9.80;;;7.30;96.40;;;;;;5013186;28;20581;-46
2022/01/22 13:00:48;;;;;;;13.27;9.83;;;7.30;96.50;;;;;;5045128;28;20483;-46
2022/01/22 13:03:30;;;;;;;13.83;10.13;;;7.30;96.60;;;;;;5041994;28;20471;-46
2022/01/22 13:05:58;;;;;;;11.20;9.50;;;7.20;96.40;;;;;;5043497;28;20482;-46
2022/01/22 13:08:28;;;;;;;15.90;10.80;;;7.20;96.40;;;;;;5064263;27;20866;-47
2022/01/22 13:10:58;;;;;;;21.50;11.03;;;7.20;96.40;;;;;;5048623;28;20930;-47
2022/01/22 13:13:25;;;;;;;21.43;12.27;;;7.20;96.60;;;;;;5060011;27;20566;-46
2022/01/22 13:16:02;;;;;;;21.83;13.93;;;7.20;96.40;;;;;;5028797;28;20558;-46
2022/01/22 13:18:50;;;;;;;23.07;14.70;;;7.20;96.40;;;;;;5047668;28;20895;-48
2022/01/22 13:21:20;;;;;;;32.10;16.00;;;7.20;96.50;;;;;;5061149;27;20562;-46
2022/01/22 13:23:58;;;;;;;42.60;20.43;;;7.20;96.50;;;;;;5068579;27;21003;-46
2022/01/22 13:26:43;;;;;;;39.67;18.03;;;7.20;96.60;;;;;;5066620;27;20484;-46
2022/01/22 13:29:17;;;;;;;190.53;33.13;;;;;;;;;;5055461;27;20473;-46
2022/01/22 13:31:56;;;;;;;39.43;18.97;;;7.10;96.30;;;;;;5071161;27;20998;-46
2022/01/22 13:34:33;;;;;;;134.93;27.23;;;;;;;;;;5056801;28;20707;-46
2022/01/22 13:37:43;;;;;;;84.20;24.63;;;7.00;96.70;;;;;;5071313;27;20556;-46
2022/01/22 13:48:50;;;;;;;36.37;14.97;;;6.90;97.10;;;;;;5050682;28;20529;-46
2022/01/22 13:51:17;;;;;;;16.23;13.47;;;6.90;97.00;;;;;;5075549;27;20479;-46
2022/01/22 13:53:46;;;;;;;19.37;13.23;;;6.90;97.10;;;;;;5053196;28;20485;-47
2022/01/22 13:56:13;;;;;;;29.40;13.23;;;6.90;97.10;;;;;;5075417;27;20950;-46
2022/01/22 13:58:41;;;;;;;17.20;12.27;;;6.90;97.30;;;;;;5057792;27;20484;-46
2022/01/22 14:01:17;;;;;;;16.17;10.00;;;6.90;97.30;;;;;;5048689;28;20472;-46
2022/01/22 14:03:45;;;;;;;18.90;13.20;;;6.80;97.10;;;;;;5035596;28;20476;-46
2022/01/22 14:06:13;;;;;;;15.77;9.30;;;6.90;97.40;;;;;;5049227;28;21001;-46
2022/01/22 14:08:40;;;;;;;21.30;11.23;;;7.00;97.40;;;;;;5054908;28;20558;-46
2022/01/22 14:11:08;;;;;;;23.10;11.80;;;6.90;97.50;;;;;;5049750;28;20518;-46
2022/01/22 14:13:35;;;;;;;22.77;13.50;;;6.80;97.20;;;;;;5056422;28;21127;-46